Time;durP1;ratioP1;P1;durP2;ratioP2;P2;SDS_P1;SDS_P2;PMS_P1;PMS_P2;Temp;Humidity;BMP_temperature;BMP_pressure;BME280_temperature;BME280_humidity;BME280_pressure;Samples;Min_cycle;Max_cycle;Signal;HPM_P1;HPM_P2
2021/10/02 00:35:18;;;;;;;2.60;2.40;;;11.00;99.90;;;;;;5034278;28;20494;-75
2021/10/02 00:38:04;;;;;;;3.73;3.30;;;11.00;99.90;;;;;;5054810;28;20444;-75
2021/10/02 00:46:01;;;;;;;3.10;2.77;;;10.90;99.90;;;;;;5054469;28;21023;-76
2021/10/02 00:48:27;;;;;;;2.80;2.67;;;10.90;99.90;;;;;;5054706;28;20800;-76
2021/10/02 00:50:58;;;;;;;3.00;2.80;;;10.90;99.90;;;;;;5054202;28;20507;-76
2021/10/02 00:53:26;;;;;;;4.33;3.33;;;10.90;99.90;;;;;;5054193;28;20567;-77
2021/10/02 00:55:53;;;;;;;3.10;2.90;;;10.90;99.90;;;;;;5054390;28;20491;-77
2021/10/02 00:58:19;;;;;;;3.43;3.10;;;10.90;99.90;;;;;;5054350;28;20547;-76
2021/10/02 01:00:50;;;;;;;3.37;3.17;;;10.90;99.90;;;;;;5054255;28;20506;-76
2021/10/02 01:03:29;;;;;;;3.03;2.83;;;11.00;99.90;;;;;;5054322;28;20494;-76
2021/10/02 01:06:07;;;;;;;4.43;3.20;;;11.10;99.90;;;;;;5054088;28;20528;-76
2021/10/02 01:08:39;;;;;;;3.57;3.27;;;11.10;99.90;;;;;;5054337;28;20452;-76
2021/10/02 01:11:16;;;;;;;4.60;3.17;;;11.10;99.90;;;;;;5054218;28;20884;-76
2021/10/02 01:13:51;;;;;;;4.40;2.93;;;11.10;99.90;;;;;;5053958;28;20538;-76
2021/10/02 01:16:26;;;;;;;3.83;3.43;;;11.10;99.90;;;;;;5053851;28;20495;-76
2021/10/02 01:18:57;;;;;;;4.07;3.70;;;11.10;99.90;;;;;;5054125;28;20531;-76
2021/10/02 01:21:48;;;;;;;3.30;3.00;;;11.10;99.90;;;;;;5053855;28;20475;-76
2021/10/02 01:24:30;;;;;;;4.13;3.73;;;11.00;99.90;;;;;;5046199;28;21009;-76
2021/10/02 01:27:10;;;;;;;3.07;2.87;;;11.10;99.90;;;;;;5053799;28;20951;-77
2021/10/02 01:29:39;;;;;;;3.30;3.10;;;11.00;99.90;;;;;;5053653;28;20462;-76
2021/10/02 01:32:13;;;;;;;3.60;3.30;;;11.00;99.90;;;;;;5053930;28;20516;-75
2021/10/02 01:34:52;;;;;;;4.63;3.50;;;11.00;99.90;;;;;;5053766;28;20456;-76
2021/10/02 01:37:26;;;;;;;3.93;3.63;;;11.00;99.90;;;;;;5053803;28;20445;-76
2021/10/02 01:48:15;;;;;;;3.43;3.13;;;11.00;99.90;;;;;;5053623;28;20529;-76
2021/10/02 01:50:43;;;;;;;4.00;3.00;;;10.90;99.90;;;;;;5053378;28;20445;-76
2021/10/02 01:53:10;;;;;;;2.90;2.70;;;10.90;99.90;;;;;;5053462;28;20480;-76
2021/10/02 01:55:38;;;;;;;4.40;4.00;;;10.90;99.90;;;;;;5040699;28;20457;-76
2021/10/02 01:58:07;;;;;;;4.33;3.77;;;10.90;99.90;;;;;;5036666;28;20444;-76
2021/10/02 02:00:38;;;;;;;5.53;3.50;;;10.80;99.90;;;;;;5053222;28;20452;-76
2021/10/02 02:03:07;;;;;;;3.20;3.00;;;10.80;99.90;;;;;;5052463;28;20487;-76
2021/10/02 02:05:35;;;;;;;4.87;2.93;;;10.80;99.90;;;;;;5053072;28;20531;-76
2021/10/02 02:08:05;;;;;;;3.90;3.60;;;10.80;99.90;;;;;;5053066;28;20559;-76
2021/10/02 02:10:33;;;;;;;6.53;3.40;;;10.80;99.90;;;;;;5052479;28;20535;-75
2021/10/02 02:13:01;;;;;;;3.97;3.67;;;10.80;99.90;;;;;;5053161;28;20512;-76
2021/10/02 02:15:29;;;;;;;3.90;2.90;;;10.70;99.90;;;;;;5053036;28;20485;-76
2021/10/02 02:18:00;;;;;;;3.13;2.93;;;10.80;99.90;;;;;;5053150;28;20476;-76
2021/10/02 02:20:30;;;;;;;6.17;3.30;;;10.70;99.90;;;;;;5052940;28;20539;-76
2021/10/02 02:22:56;;;;;;;3.93;3.43;;;10.80;99.90;;;;;;5052868;28;20531;-76
2021/10/02 02:25:23;;;;;;;3.83;3.53;;;10.70;99.90;;;;;;5052583;28;20487;-76
2021/10/02 02:27:50;;;;;;;5.83;3.47;;;10.70;99.90;;;;;;5052743;28;20506;-76
2021/10/02 02:30:16;;;;;;;4.47;4.03;;;10.70;99.90;;;;;;5052585;28;20943;-76
2021/10/02 02:32:44;;;;;;;3.73;3.43;;;10.70;99.90;;;;;;5052601;28;20555;-76
2021/10/02 02:35:13;;;;;;;4.00;3.70;;;10.80;99.90;;;;;;5052577;28;20441;-76
2021/10/02 02:37:40;;;;;;;3.60;3.30;;;10.80;99.90;;;;;;5052377;28;20997;-76
2021/10/02 02:40:07;;;;;;;3.47;3.17;;;10.80;99.90;;;;;;5052823;28;20476;-76
2021/10/02 02:42:34;;;;;;;4.57;3.53;;;10.80;99.90;;;;;;5052229;28;20567;-76
2021/10/02 02:45:01;;;;;;;3.83;3.50;;;10.80;99.90;;;;;;5052584;28;20483;-76
2021/10/02 02:47:29;;;;;;;5.40;3.10;;;10.80;99.90;;;;;;5052234;28;20471;-76
2021/10/02 02:50:00;;;;;;;3.40;3.10;;;10.80;99.90;;;;;;5052437;28;20479;-77
2021/10/02 02:52:37;;;;;;;3.57;3.00;;;10.70;99.90;;;;;;5052266;28;20483;-76
2021/10/02 02:55:07;;;;;;;3.90;3.60;;;10.70;99.90;;;;;;5052482;28;20479;-76
2021/10/02 02:57:39;;;;;;;3.43;3.23;;;10.70;99.90;;;;;;5052586;28;20847;-76
2021/10/02 03:00:09;;;;;;;5.23;3.60;;;10.70;99.90;;;;;;5049007;28;20527;-76
2021/10/02 03:02:39;;;;;;;5.17;3.67;;;10.80;99.90;;;;;;5052139;28;20444;-77
2021/10/02 03:05:07;;;;;;;6.80;4.30;;;10.80;99.90;;;;;;5052323;28;20476;-77
2021/10/02 03:07:39;;;;;;;3.83;3.40;;;10.90;99.90;;;;;;5052365;28;20487;-76
2021/10/02 03:10:11;;;;;;;4.43;3.60;;;10.90;99.90;;;;;;5035947;28;20535;-76
2021/10/02 03:12:41;;;;;;;3.43;3.23;;;10.90;99.90;;;;;;5052160;28;20832;-76
2021/10/02 03:15:11;;;;;;;4.30;3.90;;;10.90;99.90;;;;;;5053941;28;20530;-76
2021/10/02 03:17:39;;;;;;;4.30;4.00;;;10.90;99.90;;;;;;5056194;28;20508;-76
2021/10/02 03:20:07;;;;;;;4.37;3.73;;;10.90;99.90;;;;;;5039958;28;20475;-76
2021/10/02 03:22:36;;;;;;;4.10;3.53;;;10.90;99.90;;;;;;5056094;28;20803;-76
2021/10/02 03:25:06;;;;;;;3.67;3.37;;;10.90;99.90;;;;;;5056074;28;20480;-76
2021/10/02 03:27:33;;;;;;;3.83;3.53;;;10.90;99.90;;;;;;5055775;28;20891;-76
2021/10/02 03:30:00;;;;;;;3.20;2.90;;;11.00;99.90;;;;;;5055913;28;20452;-77
2021/10/02 03:32:28;;;;;;;3.70;3.40;;;11.00;99.90;;;;;;5055987;28;20476;-76
2021/10/02 03:34:55;;;;;;;4.07;3.77;;;11.00;99.90;;;;;;5055826;28;20444;-76
2021/10/02 03:37:22;;;;;;;5.87;3.97;;;11.00;99.90;;;;;;5056253;28;20476;-76
2021/10/02 03:39:50;;;;;;;4.83;4.17;;;11.00;99.90;;;;;;5055683;28;20476;-76
2021/10/02 03:42:20;;;;;;;5.83;4.97;;;11.00;99.90;;;;;;5055656;28;20522;-76
2021/10/02 03:44:49;;;;;;;4.30;4.00;;;11.10;99.90;;;;;;5055858;28;20504;-76
2021/10/02 03:47:17;;;;;;;4.27;3.97;;;11.10;99.90;;;;;;5055656;28;20475;-76
2021/10/02 03:49:45;;;;;;;3.43;3.10;;;11.10;99.90;;;;;;5055600;28;20902;-76
2021/10/02 03:52:12;;;;;;;5.53;3.53;;;11.10;99.90;;;;;;5055573;28;20876;-76
2021/10/02 03:54:40;;;;;;;3.90;3.70;;;11.10;99.90;;;;;;5055338;28;20571;-76
2021/10/02 03:57:08;;;;;;;4.37;3.57;;;11.20;99.90;;;;;;5055596;28;20444;-76
2021/10/02 03:59:35;;;;;;;3.93;3.63;;;11.20;99.90;;;;;;5055412;28;20484;-76
2021/10/02 04:02:02;;;;;;;3.23;2.93;;;11.30;99.90;;;;;;5055352;28;20532;-76
2021/10/02 04:04:28;;;;;;;4.03;3.73;;;11.30;99.90;;;;;;5055407;28;20535;-76
2021/10/02 04:06:55;;;;;;;3.80;3.60;;;11.30;99.90;;;;;;5055257;28;20503;-76
2021/10/02 04:09:21;;;;;;;3.47;3.17;;;11.40;99.90;;;;;;5055197;28;20867;-76
2021/10/02 04:11:48;;;;;;;4.13;3.83;;;11.40;99.90;;;;;;5055189;28;20482;-76
2021/10/02 04:14:16;;;;;;;4.60;3.87;;;11.40;99.90;;;;;;5055244;28;20563;-76
2021/10/02 04:16:43;;;;;;;4.23;3.93;;;11.40;99.90;;;;;;5055418;28;20444;-76
2021/10/02 04:19:09;;;;;;;3.70;3.40;;;11.40;99.90;;;;;;5055217;28;20535;-76
2021/10/02 04:21:36;;;;;;;3.87;3.60;;;11.40;99.90;;;;;;5054848;28;20444;-76
2021/10/02 04:24:02;;;;;;;3.83;3.53;;;11.40;99.90;;;;;;5054808;28;20535;-76
2021/10/02 04:26:29;;;;;;;10.53;3.80;;;11.40;99.90;;;;;;5053955;28;20527;-76
2021/10/02 04:28:56;;;;;;;4.50;4.10;;;11.40;99.90;;;;;;5055072;28;20539;-76
2021/10/02 04:31:24;;;;;;;6.47;4.20;;;11.40;99.90;;;;;;5054803;28;20568;-76
2021/10/02 04:33:50;;;;;;;6.50;3.83;;;11.40;99.90;;;;;;5054643;28;20899;-76
2021/10/02 04:36:17;;;;;;;4.83;4.33;;;11.30;99.90;;;;;;5054760;28;20540;-76
2021/10/02 04:38:45;;;;;;;4.23;3.83;;;11.40;99.90;;;;;;5054890;28;20870;-76
2021/10/02 04:41:12;;;;;;;6.80;4.60;;;11.40;99.90;;;;;;5054705;28;20500;-76
2021/10/02 04:43:41;;;;;;;7.33;4.80;;;11.30;99.90;;;;;;5054632;28;20495;-76
2021/10/02 04:46:09;;;;;;;4.60;4.20;;;11.30;99.90;;;;;;5038651;28;20454;-76
2021/10/02 04:48:37;;;;;;;9.00;4.80;;;11.30;99.90;;;;;;5054589;28;20481;-76
2021/10/02 04:51:04;;;;;;;4.20;3.90;;;11.30;99.90;;;;;;5054434;28;20540;-76
2021/10/02 04:53:30;;;;;;;5.77;5.03;;;11.30;99.90;;;;;;5054367;28;20480;-76
2021/10/02 04:55:59;;;;;;;4.80;4.40;;;11.30;99.90;;;;;;5054591;28;20483;-76
2021/10/02 04:58:26;;;;;;;4.33;4.03;;;11.30;99.90;;;;;;5054338;28;20448;-82
2021/10/02 05:00:53;;;;;;;5.07;4.67;;;11.40;99.90;;;;;;5054410;28;20846;-76
2021/10/02 05:03:19;;;;;;;6.43;4.80;;;11.30;99.90;;;;;;5054129;28;20487;-77
2021/10/02 05:05:47;;;;;;;4.43;4.03;;;11.30;99.90;;;;;;5054233;28;20539;-77
2021/10/02 05:08:14;;;;;;;4.60;4.20;;;11.30;99.90;;;;;;5054206;28;20536;-76
2021/10/02 05:10:41;;;;;;;4.63;4.33;;;11.40;99.90;;;;;;5054217;28;20475;-76
2021/10/02 05:13:09;;;;;;;5.10;3.97;;;11.40;99.90;;;;;;5054162;28;20467;-76
2021/10/02 05:15:36;;;;;;;6.13;4.50;;;11.40;99.90;;;;;;5053971;28;20444;-76
2021/10/02 05:18:02;;;;;;;5.07;4.60;;;11.40;99.90;;;;;;5053814;28;20528;-77
2021/10/02 05:20:29;;;;;;;5.27;4.87;;;11.40;99.90;;;;;;5054066;28;20524;-77
2021/10/02 05:22:58;;;;;;;7.50;3.57;;;11.40;99.90;;;;;;5053678;28;20440;-76
2021/10/02 05:25:25;;;;;;;4.83;4.00;;;11.40;99.90;;;;;;5053897;28;20502;-76
2021/10/02 05:27:51;;;;;;;7.80;4.90;;;11.40;99.90;;;;;;5053715;28;20483;-76
2021/10/02 05:30:18;;;;;;;10.10;5.07;;;11.40;99.90;;;;;;5053760;28;20455;-76
2021/10/02 05:32:45;;;;;;;6.60;4.47;;;11.50;99.90;;;;;;5053671;28;20475;-76
2021/10/02 05:35:12;;;;;;;8.50;4.50;;;11.40;99.90;;;;;;5053689;28;20908;-76
2021/10/02 05:37:38;;;;;;;5.10;4.70;;;11.40;99.90;;;;;;5053545;28;20495;-76
2021/10/02 05:40:07;;;;;;;5.07;4.67;;;11.50;99.90;;;;;;5053636;28;20535;-76
2021/10/02 05:42:34;;;;;;;5.13;4.73;;;11.50;99.90;;;;;;5053529;28;20554;-76
2021/10/02 05:45:01;;;;;;;9.40;5.23;;;11.50;99.90;;;;;;5053570;28;20479;-77
2021/10/02 05:47:27;;;;;;;5.33;4.83;;;11.50;99.90;;;;;;5053847;28;20535;-76
2021/10/02 05:49:54;;;;;;;6.27;5.30;;;11.60;99.90;;;;;;5053498;28;20491;-76
2021/10/02 05:52:20;;;;;;;5.60;5.10;;;11.60;99.90;;;;;;5053516;28;20480;-76
2021/10/02 05:54:47;;;;;;;10.17;5.13;;;11.70;99.90;;;;;;5053517;28;20534;-76
2021/10/02 05:57:15;;;;;;;5.07;4.60;;;11.70;99.90;;;;;;5053355;28;20471;-76
2021/10/02 05:59:41;;;;;;;5.07;4.60;;;11.70;99.90;;;;;;5052809;28;20480;-77
2021/10/02 06:02:08;;;;;;;5.60;5.07;;;11.80;99.90;;;;;;5053475;28;20846;-76
2021/10/02 06:04:35;;;;;;;5.80;5.23;;;11.80;99.90;;;;;;5052856;28;21038;-76
2021/10/02 06:07:02;;;;;;;5.53;4.40;;;11.90;99.90;;;;;;5053243;28;20440;-76
2021/10/02 06:09:29;;;;;;;5.80;5.30;;;11.90;99.90;;;;;;5052938;28;20440;-76
2021/10/02 06:11:55;;;;;;;5.20;4.70;;;12.00;99.90;;;;;;5053046;28;20452;-76
2021/10/02 06:14:23;;;;;;;7.67;4.87;;;11.90;99.90;;;;;;5052749;28;20523;-76
2021/10/02 06:16:50;;;;;;;5.93;5.43;;;12.10;99.90;;;;;;5053068;28;20986;-76
2021/10/02 06:19:17;;;;;;;6.37;4.90;;;12.10;99.90;;;;;;5052840;28;20524;-77
2021/10/02 06:21:44;;;;;;;5.73;5.07;;;12.20;99.90;;;;;;5052698;28;20935;-76
2021/10/02 06:24:11;;;;;;;4.93;4.63;;;12.20;99.90;;;;;;5052693;28;20483;-76
2021/10/02 06:26:38;;;;;;;10.43;5.07;;;12.20;99.90;;;;;;5052725;28;20539;-77
2021/10/02 06:29:05;;;;;;;5.93;4.80;;;12.30;99.90;;;;;;5052702;28;20870;-76
2021/10/02 06:31:33;;;;;;;6.90;5.20;;;12.40;99.90;;;;;;5052417;28;20484;-76
2021/10/02 06:33:59;;;;;;;4.73;4.17;;;12.40;99.90;;;;;;5052605;28;20534;-76
2021/10/02 06:36:27;;;;;;;5.23;4.70;;;12.50;99.90;;;;;;5052665;28;20519;-76
2021/10/02 06:38:53;;;;;;;5.57;5.00;;;12.50;99.90;;;;;;5052540;28;20440;-76
2021/10/02 06:41:20;;;;;;;6.37;4.80;;;12.50;99.90;;;;;;5052300;28;20607;-77
2021/10/02 06:43:47;;;;;;;5.40;4.53;;;12.60;99.90;;;;;;5052398;28;20539;-77
2021/10/02 06:46:13;;;;;;;8.63;5.50;;;12.60;99.90;;;;;;5052503;28;20436;-76
2021/10/02 06:48:41;;;;;;;5.10;4.70;;;12.70;99.90;;;;;;5052430;28;20472;-76
2021/10/02 06:51:08;;;;;;;5.03;4.30;;;12.70;99.90;;;;;;5052353;28;20795;-76
2021/10/02 06:53:35;;;;;;;5.73;4.50;;;12.70;99.90;;;;;;5052150;28;20583;-76
2021/10/02 06:56:01;;;;;;;5.40;5.00;;;12.80;99.90;;;;;;5052289;28;20463;-76
2021/10/02 06:58:28;;;;;;;7.83;4.87;;;12.80;99.90;;;;;;5052489;28;20483;-77
2021/10/02 07:00:54;;;;;;;4.47;4.07;;;12.90;99.90;;;;;;5052373;28;20479;-75
2021/10/02 07:03:21;;;;;;;5.43;5.03;;;13.00;99.90;;;;;;5050158;28;20488;-76
2021/10/02 07:05:49;;;;;;;4.80;4.40;;;13.10;99.90;;;;;;5052012;28;20535;-76
2021/10/02 07:08:15;;;;;;;5.43;4.43;;;13.10;99.90;;;;;;5052074;28;20506;-77
2021/10/02 07:10:42;;;;;;;5.53;4.70;;;13.30;99.90;;;;;;5051998;28;20520;-76
2021/10/02 07:13:09;;;;;;;4.90;4.13;;;13.40;99.90;;;;;;5052247;28;20850;-77
2021/10/02 07:15:36;;;;;;;5.40;4.57;;;13.40;99.90;;;;;;5052079;28;20835;-76
2021/10/02 07:18:03;;;;;;;4.97;4.57;;;13.50;99.90;;;;;;5052104;28;20460;-76
2021/10/02 07:20:29;;;;;;;5.20;4.57;;;13.50;99.90;;;;;;5052075;28;20451;-76
2021/10/02 07:22:57;;;;;;;5.67;4.20;;;13.60;99.90;;;;;;5052028;28;20437;-77
2021/10/02 07:25:25;;;;;;;5.00;4.60;;;13.70;99.90;;;;;;5052144;28;20506;-76
2021/10/02 07:27:52;;;;;;;4.40;4.00;;;13.80;99.90;;;;;;5051174;28;20491;-77
2021/10/02 07:30:20;;;;;;;3.63;3.43;;;13.80;99.90;;;;;;5051844;28;20480;-77
2021/10/02 07:32:46;;;;;;;4.73;4.33;;;13.90;99.90;;;;;;5051885;28;20540;-75
2021/10/02 07:35:14;;;;;;;5.30;3.83;;;14.10;99.90;;;;;;5050907;28;20868;-76
2021/10/02 07:37:41;;;;;;;5.93;4.13;;;14.20;99.90;;;;;;5048684;28;20870;-76
2021/10/02 07:40:11;;;;;;;4.47;4.10;;;14.40;99.90;;;;;;5050838;28;20480;-75
2021/10/02 07:42:39;;;;;;;4.27;3.87;;;14.60;99.90;;;;;;5051718;28;20904;-75
2021/10/02 07:45:08;;;;;;;5.23;4.13;;;14.70;99.90;;;;;;5051913;28;20535;-75
2021/10/02 07:47:40;;;;;;;17.47;4.40;;;14.90;99.90;;;;;;5051731;28;20536;-75
2021/10/02 07:50:09;;;;;;;5.30;3.67;;;15.00;99.90;;;;;;5035433;28;20778;-76
2021/10/02 07:52:36;;;;;;;4.50;3.60;;;15.20;99.90;;;;;;5051923;28;20540;-75
2021/10/02 07:55:04;;;;;;;3.87;3.57;;;15.30;99.90;;;;;;5051420;28;21031;-76
2021/10/02 07:57:32;;;;;;;4.50;4.10;;;15.50;99.90;;;;;;5051733;28;20456;-76
2021/10/02 07:59:59;;;;;;;3.13;2.93;;;15.60;99.90;;;;;;5050998;28;20449;-75
2021/10/02 08:02:26;;;;;;;3.73;3.30;;;15.70;99.90;;;;;;5053225;28;20452;-76
2021/10/02 08:04:56;;;;;;;3.90;3.27;;;15.90;99.90;;;;;;5054873;28;20861;-76
2021/10/02 08:07:22;;;;;;;3.70;3.40;;;16.00;99.90;;;;;;5055497;28;20470;-75
2021/10/02 08:09:49;;;;;;;2.67;2.57;;;16.10;99.90;;;;;;5054953;28;20535;-76
2021/10/02 08:12:16;;;;;;;4.50;3.90;;;16.20;99.90;;;;;;5055183;28;20800;-76
2021/10/02 08:14:44;;;;;;;4.33;3.40;;;16.30;99.90;;;;;;5055003;28;21079;-76
2021/10/02 08:17:12;;;;;;;3.73;3.43;;;16.40;99.90;;;;;;5054991;28;20448;-76
2021/10/02 08:19:41;;;;;;;3.83;3.47;;;16.40;99.90;;;;;;5055193;28;20483;-76
2021/10/02 08:22:10;;;;;;;4.07;3.77;;;16.40;99.90;;;;;;5039204;28;20480;-76
2021/10/02 08:24:39;;;;;;;8.60;3.53;;;16.40;99.90;;;;;;5054711;28;20475;-76
2021/10/02 08:27:06;;;;;;;3.60;3.30;;;16.30;99.90;;;;;;5055016;28;20444;-76
2021/10/02 08:29:33;;;;;;;3.73;2.70;;;16.40;99.90;;;;;;5054709;28;21013;-76
2021/10/02 08:32:02;;;;;;;3.50;3.30;;;16.40;99.90;;;;;;5054605;28;21015;-76
2021/10/02 08:34:28;;;;;;;2.73;2.53;;;16.50;99.90;;;;;;5054635;28;20476;-75
2021/10/02 08:36:55;;;;;;;2.90;2.70;;;16.50;99.90;;;;;;5054847;28;20444;-76
2021/10/02 08:39:21;;;;;;;3.10;2.90;;;16.50;99.90;;;;;;5054525;28;20469;-76
2021/10/02 08:41:50;;;;;;;3.17;2.97;;;16.40;99.90;;;;;;5054259;28;20571;-75
2021/10/02 08:44:18;;;;;;;4.30;3.47;;;16.30;99.90;;;;;;5054572;28;20867;-76
2021/10/02 08:46:47;;;;;;;3.83;3.00;;;16.20;99.90;;;;;;5054623;28;20445;-76
2021/10/02 08:49:30;;;;;;;2.80;2.60;;;16.00;99.90;;;;;;5054352;28;20451;-76
2021/10/02 08:51:58;;;;;;;2.80;2.60;;;15.80;99.90;;;;;;5054306;28;20535;-76
2021/10/02 08:54:25;;;;;;;5.37;2.97;;;15.60;99.90;;;;;;5054159;28;21034;-78
2021/10/02 08:56:52;;;;;;;2.90;2.70;;;15.50;99.90;;;;;;5054287;28;20523;-75
2021/10/02 08:59:20;;;;;;;2.20;2.10;;;15.40;99.90;;;;;;5054485;28;20517;-76
2021/10/02 09:01:48;;;;;;;2.60;2.40;;;15.40;99.90;;;;;;5054068;28;20491;-76
2021/10/02 09:04:17;;;;;;;2.77;2.50;;;15.30;99.90;;;;;;5054386;28;20502;-76
2021/10/02 09:06:44;;;;;;;3.20;2.50;;;15.30;99.90;;;;;;5053671;28;20447;-76
2021/10/02 09:09:11;;;;;;;3.30;2.60;;;15.20;99.90;;;;;;5053360;28;20967;-76
2021/10/02 09:11:37;;;;;;;3.00;2.80;;;15.20;99.90;;;;;;5053576;28;20479;-76
2021/10/02 09:14:04;;;;;;;3.80;2.90;;;15.10;99.90;;;;;;5052887;28;20480;-76
2021/10/02 09:16:31;;;;;;;3.70;2.67;;;15.10;99.90;;;;;;5053663;28;20448;-76
2021/10/02 09:18:59;;;;;;;3.20;3.00;;;15.10;99.90;;;;;;5052316;28;20449;-75
2021/10/02 09:21:27;;;;;;;3.00;2.80;;;15.10;99.90;;;;;;5053710;28;20452;-76
2021/10/02 09:23:54;;;;;;;3.13;2.93;;;15.10;99.90;;;;;;5053429;28;21380;-76
2021/10/02 09:26:44;;;;;;;2.33;2.23;;;15.10;99.90;;;;;;5053690;28;20452;-76
2021/10/02 09:29:11;;;;;;;2.57;2.37;;;15.10;99.90;;;;;;5053836;28;20449;-76
2021/10/02 09:31:38;;;;;;;2.50;2.30;;;15.20;99.90;;;;;;5053550;28;20527;-76
2021/10/02 09:34:04;;;;;;;2.50;2.30;;;15.20;99.90;;;;;;5053565;28;20479;-75
2021/10/02 09:36:46;;;;;;;2.13;2.03;;;15.30;99.90;;;;;;5050320;28;20488;-76
2021/10/02 09:39:12;;;;;;;2.40;2.20;;;15.30;99.90;;;;;;5049323;28;20543;-76
2021/10/02 09:41:47;;;;;;;2.73;2.23;;;15.40;99.90;;;;;;5053003;28;20508;-76
2021/10/02 09:44:22;;;;;;;2.53;2.33;;;15.40;99.90;;;;;;5038030;28;20463;-75
2021/10/02 09:46:49;;;;;;;2.77;2.57;;;15.40;99.90;;;;;;5053172;28;20789;-76
2021/10/02 09:49:16;;;;;;;2.50;2.30;;;15.40;99.90;;;;;;5053399;28;20475;-75
2021/10/02 09:51:45;;;;;;;2.23;1.97;;;15.50;99.90;;;;;;5053019;28;20471;-75
2021/10/02 09:54:35;;;;;;;4.00;2.27;;;15.60;99.90;;;;;;5053275;28;20966;-76
2021/10/02 09:57:09;;;;;;;3.27;2.03;;;15.70;99.90;;;;;;5053174;28;20488;-76
2021/10/02 09:59:36;;;;;;;3.40;2.20;;;15.80;99.90;;;;;;5053264;28;20452;-76
2021/10/02 10:02:13;;;;;;;2.50;1.97;;;15.90;99.90;;;;;;5052966;28;20445;-75
2021/10/02 10:04:47;;;;;;;2.30;2.10;;;16.00;99.90;;;;;;5053327;28;20459;-75
2021/10/02 10:07:15;;;;;;;2.60;1.80;;;16.10;99.90;;;;;;5052753;28;20479;-75
2021/10/02 10:09:42;;;;;;;2.47;1.63;;;16.30;99.90;;;;;;5051686;28;20544;-76
2021/10/02 10:12:09;;;;;;;9.77;2.30;;;16.40;99.90;;;;;;5052989;28;20468;-76
2021/10/02 10:14:36;;;;;;;3.73;1.53;;;16.40;99.90;;;;;;5052829;28;21036;-76
2021/10/02 10:17:08;;;;;;;2.83;1.80;;;16.40;99.90;;;;;;5052762;28;20452;-75
2021/10/02 10:19:35;;;;;;;2.60;1.93;;;16.50;99.90;;;;;;5052976;28;20448;-75
2021/10/02 10:22:07;;;;;;;2.00;1.70;;;16.50;99.90;;;;;;5052476;28;20971;-77
2021/10/02 10:24:37;;;;;;;2.07;1.43;;;16.50;99.90;;;;;;5051916;28;20804;-77
2021/10/02 10:27:04;;;;;;;1.50;1.40;;;16.60;99.90;;;;;;5052014;28;20527;-80
2021/10/02 10:29:39;;;;;;;1.60;1.50;;;16.60;99.90;;;;;;5052101;28;20452;-80
2021/10/02 10:32:07;;;;;;;2.80;1.63;;;16.70;99.90;;;;;;5038383;28;20493;-86
2021/10/02 10:34:35;;;;;;;2.10;1.83;;;16.70;99.90;;;;;;5052403;28;20506;-85
2021/10/02 10:37:02;;;;;;;1.97;1.87;;;16.70;99.90;;;;;;5052484;28;20452;-83
2021/10/02 10:39:29;;;;;;;3.13;1.90;;;16.70;99.90;;;;;;5052528;28;20480;-88
2021/10/02 10:41:58;;;;;;;2.33;1.87;;;16.70;99.90;;;;;;5051959;28;20510;-87
2021/10/02 10:44:26;;;;;;;3.43;1.90;;;16.80;99.90;;;;;;5049236;28;20479;-79
2021/10/02 10:46:54;;;;;;;2.60;1.77;;;16.80;99.90;;;;;;5052371;28;20428;-79
2021/10/02 10:49:23;;;;;;;1.70;1.50;;;16.90;99.90;;;;;;5052309;28;20474;-79
2021/10/02 10:51:51;;;;;;;6.00;1.80;;;16.90;99.90;;;;;;5052013;28;20480;-81
2021/10/02 10:54:19;;;;;;;1.70;1.50;;;16.90;99.90;;;;;;5052260;28;20448;-81
2021/10/02 10:56:49;;;;;;;1.70;1.60;;;16.90;99.90;;;;;;5052060;28;20559;-85
2021/10/02 10:59:18;;;;;;;1.80;1.70;;;17.00;99.90;;;;;;5052208;28;20808;-84
2021/10/02 11:01:47;;;;;;;2.17;1.60;;;17.10;99.90;;;;;;5047919;28;20452;-83
2021/10/02 11:04:35;;;;;;;1.90;1.67;;;17.20;99.90;;;;;;5046595;28;20459;-85
2021/10/02 11:07:02;;;;;;;1.73;1.63;;;17.10;99.90;;;;;;5051409;28;20585;-84
2021/10/02 11:09:37;;;;;;;1.80;1.60;;;17.20;99.90;;;;;;5051742;28;20502;-84
2021/10/02 11:12:05;;;;;;;2.20;1.60;;;17.20;99.90;;;;;;5051238;28;20935;-85
2021/10/02 11:15:02;;;;;;;1.83;1.73;;;17.20;99.90;;;;;;5051732;28;20448;-86
2021/10/02 11:17:37;;;;;;;1.67;1.50;;;17.20;99.90;;;;;;5046525;28;21058;-84
2021/10/02 11:20:29;;;;;;;4.40;1.70;;;17.20;99.90;;;;;;5051271;28;20444;-84
2021/10/02 11:23:44;;;;;;;2.87;1.40;;;17.20;99.90;;;;;;5051241;28;20453;-82
2021/10/02 11:26:12;;;;;;;2.20;2.00;;;17.20;99.90;;;;;;5037660;28;20452;-79
2021/10/02 11:28:39;;;;;;;3.30;1.97;;;17.30;99.90;;;;;;5050310;28;20542;-78
2021/10/02 11:31:14;;;;;;;2.30;1.60;;;17.30;99.90;;;;;;5051025;28;20457;-78
2021/10/02 11:33:45;;;;;;;2.10;1.60;;;17.50;99.90;;;;;;5042502;28;20488;-78
2021/10/02 11:36:46;;;;;;;2.70;1.70;;;17.50;99.90;;;;;;5053519;28;20476;-79
2021/10/02 11:39:18;;;;;;;3.00;1.50;;;17.60;99.90;;;;;;5046874;28;20443;-79
2021/10/02 11:41:48;;;;;;;1.73;1.50;;;17.60;99.90;;;;;;5055018;28;20468;-79
2021/10/02 11:44:21;;;;;;;2.30;1.50;;;17.60;99.90;;;;;;5048778;28;20447;-78
2021/10/02 11:46:55;;;;;;;2.30;1.80;;;17.60;99.90;;;;;;5055246;28;20487;-78
2021/10/02 11:49:21;;;;;;;7.67;1.87;;;17.60;99.90;;;;;;5055299;28;20451;-78
2021/10/02 11:52:10;;;;;;;1.60;1.50;;;17.70;99.90;;;;;;5054564;28;20543;-78
2021/10/02 11:54:37;;;;;;;1.63;1.40;;;17.70;99.90;;;;;;5055286;28;20444;-80
2021/10/02 11:57:10;;;;;;;1.60;1.50;;;17.80;99.90;;;;;;5054842;28;20504;-78
2021/10/02 11:59:42;;;;;;;1.73;1.63;;;17.90;99.90;;;;;;5054021;28;20456;-79
2021/10/02 12:02:11;;;;;;;2.90;1.53;;;18.00;99.90;;;;;;5052883;28;20448;-79
2021/10/02 12:04:38;;;;;;;2.30;1.47;;;18.00;99.90;;;;;;5051883;28;20474;-80
2021/10/02 12:07:05;;;;;;;1.87;1.27;;;18.10;99.90;;;;;;5054236;28;20514;-80
2021/10/02 12:09:32;;;;;;;3.20;1.90;;;18.20;99.90;;;;;;5054144;28;21065;-79
2021/10/02 12:11:59;;;;;;;2.43;2.03;;;18.20;99.90;;;;;;5052905;28;20499;-79
2021/10/02 12:14:28;;;;;;;1.43;1.33;;;18.30;99.90;;;;;;5054109;28;20856;-79
2021/10/02 12:16:57;;;;;;;2.20;1.60;;;18.30;99.90;;;;;;5053792;28;20468;-79
2021/10/02 12:19:25;;;;;;;1.53;1.43;;;18.30;99.90;;;;;;5054093;28;20487;-79
2021/10/02 12:21:55;;;;;;;1.80;1.70;;;18.30;99.90;;;;;;5053829;28;20978;-79
2021/10/02 12:24:23;;;;;;;2.80;1.60;;;18.40;99.90;;;;;;5051760;28;20531;-78
2021/10/02 12:26:54;;;;;;;4.00;2.00;;;18.40;99.90;;;;;;5053874;28;20543;-78
2021/10/02 12:29:22;;;;;;;1.80;1.70;;;18.40;99.90;;;;;;5051446;28;21013;-78
2021/10/02 12:31:55;;;;;;;1.73;1.63;;;18.40;99.90;;;;;;5053752;28;20448;-79
2021/10/02 12:34:23;;;;;;;1.57;1.47;;;18.40;99.90;;;;;;5049245;28;20536;-78
2021/10/02 12:36:56;;;;;;;2.10;1.87;;;18.40;99.90;;;;;;5054015;28;20480;-79
2021/10/02 12:39:44;;;;;;;1.60;1.50;;;18.40;99.90;;;;;;5054226;28;20850;-79
2021/10/02 12:42:12;;;;;;;1.97;1.80;;;18.40;99.90;;;;;;5042867;28;20537;-81
2021/10/02 12:44:40;;;;;;;1.73;1.60;;;18.40;99.90;;;;;;5054234;28;20452;-80
2021/10/02 12:47:09;;;;;;;2.63;1.40;;;18.40;99.90;;;;;;5053600;28;20526;-78
2021/10/02 12:49:41;;;;;;;4.33;1.60;;;18.40;99.90;;;;;;5053757;28;20491;-79
2021/10/02 12:52:09;;;;;;;3.30;1.53;;;18.50;99.90;;;;;;5046196;28;21035;-79
2021/10/02 12:54:36;;;;;;;2.20;1.53;;;18.50;99.90;;;;;;5054122;28;20507;-79
2021/10/02 12:57:10;;;;;;;1.50;1.40;;;18.50;99.90;;;;;;5046579;28;20484;-79
2021/10/02 12:59:45;;;;;;;3.23;1.50;;;18.50;99.90;;;;;;5053954;28;20548;-79
2021/10/02 13:02:13;;;;;;;3.53;1.10;;;18.50;99.90;;;;;;5046899;28;20570;-79
2021/10/02 13:04:40;;;;;;;2.80;1.73;;;18.50;99.90;;;;;;5053493;28;20479;-79
2021/10/02 13:07:09;;;;;;;1.97;1.07;;;18.50;99.90;;;;;;5054059;28;20503;-80
2021/10/02 13:09:58;;;;;;;2.20;1.73;;;18.60;99.90;;;;;;5053737;28;20781;-79
2021/10/02 13:12:27;;;;;;;3.43;1.60;;;18.60;99.90;;;;;;5048457;28;20451;-79
2021/10/02 13:14:56;;;;;;;5.97;1.80;;;18.60;99.90;;;;;;5053506;28;20507;-79
2021/10/02 13:17:24;;;;;;;2.10;1.57;;;18.60;99.90;;;;;;5053777;28;20484;-82
2021/10/02 13:20:05;;;;;;;1.60;1.50;;;18.70;99.90;;;;;;5053370;28;20475;-81
2021/10/02 13:22:40;;;;;;;1.50;1.40;;;18.70;99.90;;;;;;5053727;28;20488;-81
2021/10/02 13:25:10;;;;;;;3.53;2.00;;;18.70;99.90;;;;;;5052658;28;20479;-78
2021/10/02 13:27:38;;;;;;;1.73;1.60;;;18.80;99.90;;;;;;5053280;28;20483;-79
2021/10/02 13:30:12;;;;;;;1.70;1.60;;;18.80;99.90;;;;;;5053283;28;20468;-80
2021/10/02 13:32:39;;;;;;;1.90;1.63;;;18.80;99.90;;;;;;5053242;28;20961;-80
2021/10/02 13:35:08;;;;;;;2.33;2.13;;;18.80;99.90;;;;;;5053260;28;20527;-81
2021/10/02 13:37:36;;;;;;;2.30;1.53;;;18.80;99.90;;;;;;5053365;28;20510;-80
2021/10/02 13:40:07;;;;;;;3.30;2.30;;;18.80;99.90;;;;;;5052617;28;21020;-79
2021/10/02 13:42:34;;;;;;;2.07;1.87;;;18.80;99.90;;;;;;5052880;28;20483;-79
2021/10/02 13:45:01;;;;;;;1.50;1.40;;;18.70;99.90;;;;;;5052545;28;21053;-81